sensor_id;sensor_type;location;lat;lon;timestamp;temperature;humidity
13123;DHT22;6627;50.920;12.050;2023-05-07T00:02:06;11.30;99.90
13123;DHT22;6627;50.920;12.050;2023-05-07T00:07:15;11.20;99.90
13123;DHT22;6627;50.920;12.050;2023-05-07T00:09:43;11.20;99.90
13123;DHT22;6627;50.920;12.050;2023-05-07T00:12:18;11.20;99.90
13123;DHT22;6627;50.920;12.050;2023-05-07T00:14:53;11.30;99.90
13123;DHT22;6627;50.920;12.050;2023-05-07T00:17:26;11.20;99.90
13123;DHT22;6627;50.920;12.050;2023-05-07T00:20:04;11.30;99.90
13123;DHT22;6627;50.920;12.050;2023-05-07T00:22:35;11.30;99.90
13123;DHT22;6627;50.920;12.050;2023-05-07T00:25:08;11.40;99.90
13123;DHT22;6627;50.920;12.050;2023-05-07T00:27:43;11.30;99.90
13123;DHT22;6627;50.920;12.050;2023-05-07T00:30:16;11.30;99.90
13123;DHT22;6627;50.920;12.050;2023-05-07T00:32:47;11.20;99.90
13123;DHT22;6627;50.920;12.050;2023-05-07T00:35:24;11.20;99.90
13123;DHT22;6627;50.920;12.050;2023-05-07T00:37:52;11.10;99.90
13123;DHT22;6627;50.920;12.050;2023-05-07T00:40:24;11.10;99.90
13123;DHT22;6627;50.920;12.050;2023-05-07T00:42:56;11.20;99.90
13123;DHT22;6627;50.920;12.050;2023-05-07T00:45:29;11.20;99.90
13123;DHT22;6627;50.920;12.050;2023-05-07T00:48:02;11.20;99.90
13123;DHT22;6627;50.920;12.050;2023-05-07T00:50:34;11.20;99.90
13123;DHT22;6627;50.920;12.050;2023-05-07T00:53:04;11.10;99.90
13123;DHT22;6627;50.920;12.050;2023-05-07T00:55:35;11.10;99.90
13123;DHT22;6627;50.920;12.050;2023-05-07T00:58:07;10.90;99.90
13123;DHT22;6627;50.920;12.050;2023-05-07T01:00:41;11.00;99.90
13123;DHT22;6627;50.920;12.050;2023-05-07T01:03:10;11.10;99.90
13123;DHT22;6627;50.920;12.050;2023-05-07T01:05:43;11.10;99.90
13123;DHT22;6627;50.920;12.050;2023-05-07T01:08:17;11.00;99.90
13123;DHT22;6627;50.920;12.050;2023-05-07T01:10:54;11.10;99.90
13123;DHT22;6627;50.920;12.050;2023-05-07T01:13:28;11.00;99.90
13123;DHT22;6627;50.920;12.050;2023-05-07T01:16:14;11.00;99.90
13123;DHT22;6627;50.920;12.050;2023-05-07T01:18:46;11.10;99.90
13123;DHT22;6627;50.920;12.050;2023-05-07T01:21:24;11.10;99.90
13123;DHT22;6627;50.920;12.050;2023-05-07T01:24:12;11.00;99.90
13123;DHT22;6627;50.920;12.050;2023-05-07T01:26:47;11.10;99.90
13123;DHT22;6627;50.920;12.050;2023-05-07T01:29:19;11.10;99.90
13123;DHT22;6627;50.920;12.050;2023-05-07T01:31:52;11.10;99.90
13123;DHT22;6627;50.920;12.050;2023-05-07T01:34:28;11.10;99.90
13123;DHT22;6627;50.920;12.050;2023-05-07T01:37:04;11.00;99.90
13123;DHT22;6627;50.920;12.050;2023-05-07T01:39:40;10.90;99.90
13123;DHT22;6627;50.920;12.050;2023-05-07T01:42:15;10.90;99.90
13123;DHT22;6627;50.920;12.050;2023-05-07T01:44:46;10.90;99.90
13123;DHT22;6627;50.920;12.050;2023-05-07T01:47:17;11.00;99.90
13123;DHT22;6627;50.920;12.050;2023-05-07T01:50:05;11.00;99.90
13123;DHT22;6627;50.920;12.050;2023-05-07T01:52:40;11.10;99.90
13123;DHT22;6627;50.920;12.050;2023-05-07T01:55:22;11.10;99.90
13123;DHT22;6627;50.920;12.050;2023-05-07T01:57:55;11.00;99.90
13123;DHT22;6627;50.920;12.050;2023-05-07T02:00:24;11.10;99.90
13123;DHT22;6627;50.920;12.050;2023-05-07T02:02:58;11.00;99.90
13123;DHT22;6627;50.920;12.050;2023-05-07T02:05:29;10.80;99.90
13123;DHT22;6627;50.920;12.050;2023-05-07T02:08:00;10.90;99.90
13123;DHT22;6627;50.920;12.050;2023-05-07T02:10:39;10.90;99.90
13123;DHT22;6627;50.920;12.050;2023-05-07T02:13:09;11.30;99.90
13123;DHT22;6627;50.920;12.050;2023-05-07T02:15:41;11.00;99.90
13123;DHT22;6627;50.920;12.050;2023-05-07T02:18:17;11.00;99.90
13123;DHT22;6627;50.920;12.050;2023-05-07T02:20:49;11.10;99.90
13123;DHT22;6627;50.920;12.050;2023-05-07T02:23:22;11.00;99.90
13123;DHT22;6627;50.920;12.050;2023-05-07T02:25:54;11.00;99.90
13123;DHT22;6627;50.920;12.050;2023-05-07T02:28:27;10.90;99.90
13123;DHT22;6627;50.920;12.050;2023-05-07T02:33:33;11.00;99.90
13123;DHT22;6627;50.920;12.050;2023-05-07T02:36:09;11.00;99.90
13123;DHT22;6627;50.920;12.050;2023-05-07T02:38:41;11.00;99.90
13123;DHT22;6627;50.920;12.050;2023-05-07T02:41:20;11.00;99.90
13123;DHT22;6627;50.920;12.050;2023-05-07T02:43:49;10.90;99.90
13123;DHT22;6627;50.920;12.050;2023-05-07T02:46:19;10.90;99.90
13123;DHT22;6627;50.920;12.050;2023-05-07T02:49:06;10.90;99.90
13123;DHT22;6627;50.920;12.050;2023-05-07T02:51:36;10.80;99.90
13123;DHT22;6627;50.920;12.050;2023-05-07T02:54:07;10.80;99.90
13123;DHT22;6627;50.920;12.050;2023-05-07T02:56:38;10.80;99.90
13123;DHT22;6627;50.920;12.050;2023-05-07T02:59:10;10.80;99.90
13123;DHT22;6627;50.920;12.050;2023-05-07T03:01:56;10.70;99.90
13123;DHT22;6627;50.920;12.050;2023-05-07T03:04:26;10.80;99.90
13123;DHT22;6627;50.920;12.050;2023-05-07T03:06:57;10.70;99.90
13123;DHT22;6627;50.920;12.050;2023-05-07T03:09:26;10.50;99.90
13123;DHT22;6627;50.920;12.050;2023-05-07T03:12:05;10.60;99.90
13123;DHT22;6627;50.920;12.050;2023-05-07T03:14:35;10.50;99.90
13123;DHT22;6627;50.920;12.050;2023-05-07T03:17:06;10.50;99.90
13123;DHT22;6627;50.920;12.050;2023-05-07T03:19:34;10.40;99.90
13123;DHT22;6627;50.920;12.050;2023-05-07T03:22:07;10.40;99.90
13123;DHT22;6627;50.920;12.050;2023-05-07T03:24:54;10.30;99.90
13123;DHT22;6627;50.920;12.050;2023-05-07T03:27:28;10.30;99.90
13123;DHT22;6627;50.920;12.050;2023-05-07T03:30:00;10.30;99.90
13123;DHT22;6627;50.920;12.050;2023-05-07T03:32:31;10.30;99.90
13123;DHT22;6627;50.920;12.050;2023-05-07T03:35:06;10.40;99.90
13123;DHT22;6627;50.920;12.050;2023-05-07T03:37:39;10.30;99.90
13123;DHT22;6627;50.920;12.050;2023-05-07T03:40:12;10.30;99.90
13123;DHT22;6627;50.920;12.050;2023-05-07T03:42:46;10.30;99.90
13123;DHT22;6627;50.920;12.050;2023-05-07T03:45:20;10.30;99.90
13123;DHT22;6627;50.920;12.050;2023-05-07T03:47:54;10.30;99.90
13123;DHT22;6627;50.920;12.050;2023-05-07T03:53:05;10.30;99.90
13123;DHT22;6627;50.920;12.050;2023-05-07T03:55:39;10.30;99.90
13123;DHT22;6627;50.920;12.050;2023-05-07T03:58:14;10.30;99.90
13123;DHT22;6627;50.920;12.050;2023-05-07T04:00:46;10.20;99.90
13123;DHT22;6627;50.920;12.050;2023-05-07T04:03:17;10.20;99.90
13123;DHT22;6627;50.920;12.050;2023-05-07T04:05:51;10.20;99.90
13123;DHT22;6627;50.920;12.050;2023-05-07T04:08:21;10.20;99.90
13123;DHT22;6627;50.920;12.050;2023-05-07T04:10:54;10.30;99.90
13123;DHT22;6627;50.920;12.050;2023-05-07T04:13:27;10.20;99.90
13123;DHT22;6627;50.920;12.050;2023-05-07T04:16:03;10.20;99.90
13123;DHT22;6627;50.920;12.050;2023-05-07T04:18:34;10.20;99.90
13123;DHT22;6627;50.920;12.050;2023-05-07T04:21:13;10.20;99.90
13123;DHT22;6627;50.920;12.050;2023-05-07T04:23:43;10.20;99.90
13123;DHT22;6627;50.920;12.050;2023-05-07T04:26:14;10.20;99.90
13123;DHT22;6627;50.920;12.050;2023-05-07T04:28:47;10.20;99.90
13123;DHT22;6627;50.920;12.050;2023-05-07T04:31:16;10.20;99.90
13123;DHT22;6627;50.920;12.050;2023-05-07T04:33:54;10.20;99.90
13123;DHT22;6627;50.920;12.050;2023-05-07T04:36:22;10.20;99.90
13123;DHT22;6627;50.920;12.050;2023-05-07T04:38:57;10.20;99.90
13123;DHT22;6627;50.920;12.050;2023-05-07T04:41:31;10.20;99.90
13123;DHT22;6627;50.920;12.050;2023-05-07T04:44:04;10.20;99.90
13123;DHT22;6627;50.920;12.050;2023-05-07T04:46:37;10.20;99.90
13123;DHT22;6627;50.920;12.050;2023-05-07T04:49:11;10.20;99.90
13123;DHT22;6627;50.920;12.050;2023-05-07T04:51:41;10.20;99.90
13123;DHT22;6627;50.920;12.050;2023-05-07T04:54:22;10.20;99.90
13123;DHT22;6627;50.920;12.050;2023-05-07T04:56:51;10.30;99.90
13123;DHT22;6627;50.920;12.050;2023-05-07T05:01:54;10.30;99.90
13123;DHT22;6627;50.920;12.050;2023-05-07T05:04:24;10.30;99.90
13123;DHT22;6627;50.920;12.050;2023-05-07T05:06:55;10.30;99.90
13123;DHT22;6627;50.920;12.050;2023-05-07T05:09:28;10.30;99.90
13123;DHT22;6627;50.920;12.050;2023-05-07T05:12:02;10.30;99.90
13123;DHT22;6627;50.920;12.050;2023-05-07T05:14:36;10.30;99.90
13123;DHT22;6627;50.920;12.050;2023-05-07T05:17:07;10.30;99.90
13123;DHT22;6627;50.920;12.050;2023-05-07T05:19:35;10.30;99.90
13123;DHT22;6627;50.920;12.050;2023-05-07T05:22:06;10.40;99.90
13123;DHT22;6627;50.920;12.050;2023-05-07T05:27:08;10.40;99.90
13123;DHT22;6627;50.920;12.050;2023-05-07T05:29:46;10.50;99.90
13123;DHT22;6627;50.920;12.050;2023-05-07T05:32:18;10.40;99.90
13123;DHT22;6627;50.920;12.050;2023-05-07T05:34:46;10.40;99.90
13123;DHT22;6627;50.920;12.050;2023-05-07T05:37:25;10.50;99.90
13123;DHT22;6627;50.920;12.050;2023-05-07T05:42:32;10.50;99.90
13123;DHT22;6627;50.920;12.050;2023-05-07T05:45:02;10.50;99.90
13123;DHT22;6627;50.920;12.050;2023-05-07T05:47:30;10.60;99.90
13123;DHT22;6627;50.920;12.050;2023-05-07T05:50:04;10.60;99.90
13123;DHT22;6627;50.920;12.050;2023-05-07T05:52:39;10.60;99.90
13123;DHT22;6627;50.920;12.050;2023-05-07T05:55:15;10.50;99.90
13123;DHT22;6627;50.920;12.050;2023-05-07T05:57:49;10.50;99.90
13123;DHT22;6627;50.920;12.050;2023-05-07T06:00:20;10.40;99.90
13123;DHT22;6627;50.920;12.050;2023-05-07T06:02:51;10.50;99.90
13123;DHT22;6627;50.920;12.050;2023-05-07T06:05:23;10.50;99.90
13123;DHT22;6627;50.920;12.050;2023-05-07T06:07:54;10.60;99.90
13123;DHT22;6627;50.920;12.050;2023-05-07T06:10:28;10.50;99.90
13123;DHT22;6627;50.920;12.050;2023-05-07T06:13:03;10.60;99.90
13123;DHT22;6627;50.920;12.050;2023-05-07T06:15:36;10.60;99.90
13123;DHT22;6627;50.920;12.050;2023-05-07T06:18:06;10.60;99.90
13123;DHT22;6627;50.920;12.050;2023-05-07T06:20:41;10.70;99.90
13123;DHT22;6627;50.920;12.050;2023-05-07T06:25:49;10.80;99.90
13123;DHT22;6627;50.920;12.050;2023-05-07T06:28:23;10.90;99.90
13123;DHT22;6627;50.920;12.050;2023-05-07T06:31:12;11.00;99.90
13123;DHT22;6627;50.920;12.050;2023-05-07T06:33:45;11.00;99.90
13123;DHT22;6627;50.920;12.050;2023-05-07T06:36:16;11.00;99.90
13123;DHT22;6627;50.920;12.050;2023-05-07T06:38:56;11.00;99.90
13123;DHT22;6627;50.920;12.050;2023-05-07T06:41:30;11.00;99.90
13123;DHT22;6627;50.920;12.050;2023-05-07T06:44:01;11.00;99.90
13123;DHT22;6627;50.920;12.050;2023-05-07T06:46:31;11.10;99.90
13123;DHT22;6627;50.920;12.050;2023-05-07T06:49:05;11.00;99.90
13123;DHT22;6627;50.920;12.050;2023-05-07T06:51:35;11.00;99.90
13123;DHT22;6627;50.920;12.050;2023-05-07T06:54:20;11.10;99.90
13123;DHT22;6627;50.920;12.050;2023-05-07T06:56:58;11.10;99.90
13123;DHT22;6627;50.920;12.050;2023-05-07T06:59:46;11.00;99.90
13123;DHT22;6627;50.920;12.050;2023-05-07T07:02:33;11.00;99.90
13123;DHT22;6627;50.920;12.050;2023-05-07T07:05:07;11.00;99.90
13123;DHT22;6627;50.920;12.050;2023-05-07T07:07:36;11.10;99.90
13123;DHT22;6627;50.920;12.050;2023-05-07T07:10:18;11.10;99.90
13123;DHT22;6627;50.920;12.050;2023-05-07T07:12:48;11.10;99.90
13123;DHT22;6627;50.920;12.050;2023-05-07T07:15:19;11.10;99.90
13123;DHT22;6627;50.920;12.050;2023-05-07T07:17:55;11.20;99.90
13123;DHT22;6627;50.920;12.050;2023-05-07T07:20:42;11.20;99.90
13123;DHT22;6627;50.920;12.050;2023-05-07T07:23:17;11.30;99.90
13123;DHT22;6627;50.920;12.050;2023-05-07T07:25:51;11.40;99.90
13123;DHT22;6627;50.920;12.050;2023-05-07T07:28:34;11.40;99.90
13123;DHT22;6627;50.920;12.050;2023-05-07T07:31:08;11.50;99.90
13123;DHT22;6627;50.920;12.050;2023-05-07T07:33:46;11.50;99.90
13123;DHT22;6627;50.920;12.050;2023-05-07T07:36:19;11.50;99.90
13123;DHT22;6627;50.920;12.050;2023-05-07T07:38:56;11.50;99.90
13123;DHT22;6627;50.920;12.050;2023-05-07T07:41:27;11.60;99.90
13123;DHT22;6627;50.920;12.050;2023-05-07T07:44:00;11.60;99.90
13123;DHT22;6627;50.920;12.050;2023-05-07T07:46:32;11.60;99.90
13123;DHT22;6627;50.920;12.050;2023-05-07T07:49:06;11.60;99.90
13123;DHT22;6627;50.920;12.050;2023-05-07T07:51:37;11.60;99.90
13123;DHT22;6627;50.920;12.050;2023-05-07T07:54:18;11.70;99.90
13123;DHT22;6627;50.920;12.050;2023-05-07T07:56:49;11.60;99.90
13123;DHT22;6627;50.920;12.050;2023-05-07T07:59:29;11.70;99.90
13123;DHT22;6627;50.920;12.050;2023-05-07T08:01:59;11.60;99.90
13123;DHT22;6627;50.920;12.050;2023-05-07T08:04:33;11.60;99.90
13123;DHT22;6627;50.920;12.050;2023-05-07T08:07:22;11.70;99.90
13123;DHT22;6627;50.920;12.050;2023-05-07T08:09:56;11.70;99.90
13123;DHT22;6627;50.920;12.050;2023-05-07T08:12:43;11.70;99.90
13123;DHT22;6627;50.920;12.050;2023-05-07T08:15:18;11.80;99.90
13123;DHT22;6627;50.920;12.050;2023-05-07T08:17:47;11.80;99.90
13123;DHT22;6627;50.920;12.050;2023-05-07T08:20:20;11.80;99.90
13123;DHT22;6627;50.920;12.050;2023-05-07T08:22:52;11.90;99.90
13123;DHT22;6627;50.920;12.050;2023-05-07T08:25:28;11.80;99.90
13123;DHT22;6627;50.920;12.050;2023-05-07T08:28:00;11.90;99.90
13123;DHT22;6627;50.920;12.050;2023-05-07T08:30:31;11.80;99.90
13123;DHT22;6627;50.920;12.050;2023-05-07T08:35:43;11.80;99.90
13123;DHT22;6627;50.920;12.050;2023-05-07T08:38:13;11.80;99.90
13123;DHT22;6627;50.920;12.050;2023-05-07T08:40:43;11.80;99.90
13123;DHT22;6627;50.920;12.050;2023-05-07T08:43:19;11.80;99.90
13123;DHT22;6627;50.920;12.050;2023-05-07T08:45:57;11.90;99.90
13123;DHT22;6627;50.920;12.050;2023-05-07T08:48:38;12.00;99.90
13123;DHT22;6627;50.920;12.050;2023-05-07T08:51:14;12.10;99.90
13123;DHT22;6627;50.920;12.050;2023-05-07T08:53:54;12.10;99.90
13123;DHT22;6627;50.920;12.050;2023-05-07T08:56:30;12.20;36.20
13123;DHT22;6627;50.920;12.050;2023-05-07T08:59:04;12.20;1.00
13123;DHT22;6627;50.920;12.050;2023-05-07T09:01:38;12.20;1.00
13123;DHT22;6627;50.920;12.050;2023-05-07T09:04:12;12.10;1.00
13123;DHT22;6627;50.920;12.050;2023-05-07T09:06:41;12.00;1.00
13123;DHT22;6627;50.920;12.050;2023-05-07T09:09:09;11.90;99.90
13123;DHT22;6627;50.920;12.050;2023-05-07T09:14:24;12.20;99.90
13123;DHT22;6627;50.920;12.050;2023-05-07T09:16:58;12.10;1.00
13123;DHT22;6627;50.920;12.050;2023-05-07T09:19:27;12.20;1.00
13123;DHT22;6627;50.920;12.050;2023-05-07T09:22:05;12.10;99.90
13123;DHT22;6627;50.920;12.050;2023-05-07T09:24:34;12.10;99.90
13123;DHT22;6627;50.920;12.050;2023-05-07T09:27:09;12.10;1.00
13123;DHT22;6627;50.920;12.050;2023-05-07T09:29:47;12.10;4.40
13123;DHT22;6627;50.920;12.050;2023-05-07T09:32:21;12.10;1.00
13123;DHT22;6627;50.920;12.050;2023-05-07T09:34:49;12.10;99.90
13123;DHT22;6627;50.920;12.050;2023-05-07T09:37:26;12.10;99.90
13123;DHT22;6627;50.920;12.050;2023-05-07T09:39:56;12.10;99.90
13123;DHT22;6627;50.920;12.050;2023-05-07T09:42:30;12.10;99.90
13123;DHT22;6627;50.920;12.050;2023-05-07T09:45:07;12.10;1.00
13123;DHT22;6627;50.920;12.050;2023-05-07T09:47:43;12.10;1.00
13123;DHT22;6627;50.920;12.050;2023-05-07T09:50:19;12.10;1.00
13123;DHT22;6627;50.920;12.050;2023-05-07T09:52:58;12.10;99.90
13123;DHT22;6627;50.920;12.050;2023-05-07T09:58:21;12.20;99.90
13123;DHT22;6627;50.920;12.050;2023-05-07T10:00:53;12.40;1.00
13123;DHT22;6627;50.920;12.050;2023-05-07T10:03:36;12.50;1.00
13123;DHT22;6627;50.920;12.050;2023-05-07T10:06:12;12.50;1.00
13123;DHT22;6627;50.920;12.050;2023-05-07T10:08:44;12.50;99.90
13123;DHT22;6627;50.920;12.050;2023-05-07T10:11:16;12.60;19.70
13123;DHT22;6627;50.920;12.050;2023-05-07T10:13:53;12.70;1.00
13123;DHT22;6627;50.920;12.050;2023-05-07T10:16:32;12.80;23.70
13123;DHT22;6627;50.920;12.050;2023-05-07T10:19:03;12.80;1.00
13123;DHT22;6627;50.920;12.050;2023-05-07T10:21:36;12.70;1.00
13123;DHT22;6627;50.920;12.050;2023-05-07T10:24:20;12.70;1.00
13123;DHT22;6627;50.920;12.050;2023-05-07T10:26:59;12.80;1.00
13123;DHT22;6627;50.920;12.050;2023-05-07T10:29:42;12.60;99.90
13123;DHT22;6627;50.920;12.050;2023-05-07T10:32:35;12.60;99.90
13123;DHT22;6627;50.920;12.050;2023-05-07T10:35:16;12.70;99.90
13123;DHT22;6627;50.920;12.050;2023-05-07T10:37:57;12.70;1.20
13123;DHT22;6627;50.920;12.050;2023-05-07T10:40:39;12.80;1.00
13123;DHT22;6627;50.920;12.050;2023-05-07T10:43:21;12.80;1.00
13123;DHT22;6627;50.920;12.050;2023-05-07T10:46:11;12.80;1.00
13123;DHT22;6627;50.920;12.050;2023-05-07T10:49:09;12.80;1.00
13123;DHT22;6627;50.920;12.050;2023-05-07T10:52:11;13.00;99.90
13123;DHT22;6627;50.920;12.050;2023-05-07T10:55:19;13.00;99.90
13123;DHT22;6627;50.920;12.050;2023-05-07T10:58:23;13.00;99.90
13123;DHT22;6627;50.920;12.050;2023-05-07T11:01:04;13.10;99.90
13123;DHT22;6627;50.920;12.050;2023-05-07T11:04:12;13.20;99.90
13123;DHT22;6627;50.920;12.050;2023-05-07T11:07:21;13.20;27.60
13123;DHT22;6627;50.920;12.050;2023-05-07T11:10:01;13.10;1.00
13123;DHT22;6627;50.920;12.050;2023-05-07T11:12:48;13.00;1.00
13123;DHT22;6627;50.920;12.050;2023-05-07T11:15:43;13.10;1.00
13123;DHT22;6627;50.920;12.050;2023-05-07T11:18:19;13.20;1.00
13123;DHT22;6627;50.920;12.050;2023-05-07T11:20:54;13.30;99.90
13123;DHT22;6627;50.920;12.050;2023-05-07T11:23:58;13.40;99.90
13123;DHT22;6627;50.920;12.050;2023-05-07T11:26:45;13.50;99.90
13123;DHT22;6627;50.920;12.050;2023-05-07T11:32:07;13.30;1.00
13123;DHT22;6627;50.920;12.050;2023-05-07T11:34:47;13.20;1.00
13123;DHT22;6627;50.920;12.050;2023-05-07T11:37:21;13.30;1.00
13123;DHT22;6627;50.920;12.050;2023-05-07T11:40:06;13.40;1.00
13123;DHT22;6627;50.920;12.050;2023-05-07T11:42:41;13.30;1.00
13123;DHT22;6627;50.920;12.050;2023-05-07T11:45:27;13.20;1.00
13123;DHT22;6627;50.920;12.050;2023-05-07T11:48:05;13.20;99.90
13123;DHT22;6627;50.920;12.050;2023-05-07T11:50:52;13.30;1.00
13123;DHT22;6627;50.920;12.050;2023-05-07T11:53:24;13.30;99.90
13123;DHT22;6627;50.920;12.050;2023-05-07T11:55:59;13.30;99.90
13123;DHT22;6627;50.920;12.050;2023-05-07T11:58:33;13.30;99.90
13123;DHT22;6627;50.920;12.050;2023-05-07T12:01:09;13.40;99.90
13123;DHT22;6627;50.920;12.050;2023-05-07T12:03:44;13.50;14.90
13123;DHT22;6627;50.920;12.050;2023-05-07T12:06:20;13.50;22.40
13123;DHT22;6627;50.920;12.050;2023-05-07T12:08:57;13.50;1.00
13123;DHT22;6627;50.920;12.050;2023-05-07T12:11:33;13.40;1.00
13123;DHT22;6627;50.920;12.050;2023-05-07T12:14:12;13.40;1.00
13123;DHT22;6627;50.920;12.050;2023-05-07T12:17:00;13.30;1.00
13123;DHT22;6627;50.920;12.050;2023-05-07T12:19:44;13.40;1.00
13123;DHT22;6627;50.920;12.050;2023-05-07T12:25:09;13.30;1.00
13123;DHT22;6627;50.920;12.050;2023-05-07T12:27:44;13.30;1.00
13123;DHT22;6627;50.920;12.050;2023-05-07T12:30:38;13.40;1.00
13123;DHT22;6627;50.920;12.050;2023-05-07T12:33:07;13.20;1.00
13123;DHT22;6627;50.920;12.050;2023-05-07T12:35:45;13.20;99.90
13123;DHT22;6627;50.920;12.050;2023-05-07T12:41:26;13.50;99.90
13123;DHT22;6627;50.920;12.050;2023-05-07T12:44:15;13.40;99.90
13123;DHT22;6627;50.920;12.050;2023-05-07T12:46:50;13.30;99.90
13123;DHT22;6627;50.920;12.050;2023-05-07T12:49:34;13.30;99.90
13123;DHT22;6627;50.920;12.050;2023-05-07T12:52:15;13.30;99.90
13123;DHT22;6627;50.920;12.050;2023-05-07T12:55:04;13.30;99.90
13123;DHT22;6627;50.920;12.050;2023-05-07T12:57:48;13.30;99.90
13123;DHT22;6627;50.920;12.050;2023-05-07T13:00:36;13.50;99.90
13123;DHT22;6627;50.920;12.050;2023-05-07T13:03:21;13.40;99.90
13123;DHT22;6627;50.920;12.050;2023-05-07T13:06:08;13.50;99.90
13123;DHT22;6627;50.920;12.050;2023-05-07T13:08:46;13.70;17.90
13123;DHT22;6627;50.920;12.050;2023-05-07T13:11:25;13.70;1.00
13123;DHT22;6627;50.920;12.050;2023-05-07T13:14:00;14.00;1.00
13123;DHT22;6627;50.920;12.050;2023-05-07T13:16:41;14.30;1.00
13123;DHT22;6627;50.920;12.050;2023-05-07T13:19:15;14.60;1.00
13123;DHT22;6627;50.920;12.050;2023-05-07T13:21:59;14.70;1.00
13123;DHT22;6627;50.920;12.050;2023-05-07T13:24:38;14.60;1.00
13123;DHT22;6627;50.920;12.050;2023-05-07T13:27:24;14.60;1.00
13123;DHT22;6627;50.920;12.050;2023-05-07T13:30:06;14.60;99.90
13123;DHT22;6627;50.920;12.050;2023-05-07T13:32:40;14.40;99.90
13123;DHT22;6627;50.920;12.050;2023-05-07T13:35:09;14.40;99.90
13123;DHT22;6627;50.920;12.050;2023-05-07T13:37:53;14.70;99.90
13123;DHT22;6627;50.920;12.050;2023-05-07T13:40:34;14.70;99.90
13123;DHT22;6627;50.920;12.050;2023-05-07T13:43:09;14.80;99.90
13123;DHT22;6627;50.920;12.050;2023-05-07T13:45:42;14.90;99.90
13123;DHT22;6627;50.920;12.050;2023-05-07T13:48:25;14.90;93.60
13123;DHT22;6627;50.920;12.050;2023-05-07T13:51:12;14.90;1.00
13123;DHT22;6627;50.920;12.050;2023-05-07T13:53:52;15.10;1.00
13123;DHT22;6627;50.920;12.050;2023-05-07T13:56:39;14.90;1.00
13123;DHT22;6627;50.920;12.050;2023-05-07T13:59:24;14.80;1.00
13123;DHT22;6627;50.920;12.050;2023-05-07T14:02:11;14.60;1.00
13123;DHT22;6627;50.920;12.050;2023-05-07T14:04:49;14.50;1.00
13123;DHT22;6627;50.920;12.050;2023-05-07T14:07:27;14.30;1.00
13123;DHT22;6627;50.920;12.050;2023-05-07T14:10:07;14.50;1.00
13123;DHT22;6627;50.920;12.050;2023-05-07T14:12:41;14.60;1.00
13123;DHT22;6627;50.920;12.050;2023-05-07T14:15:27;14.90;1.00
13123;DHT22;6627;50.920;12.050;2023-05-07T14:18:00;14.90;1.00
13123;DHT22;6627;50.920;12.050;2023-05-07T14:20:37;14.80;1.00
13123;DHT22;6627;50.920;12.050;2023-05-07T14:23:24;14.90;1.00
13123;DHT22;6627;50.920;12.050;2023-05-07T14:26:06;15.00;1.00
13123;DHT22;6627;50.920;12.050;2023-05-07T14:28:42;15.20;1.00
13123;DHT22;6627;50.920;12.050;2023-05-07T14:31:23;15.10;1.00
13123;DHT22;6627;50.920;12.050;2023-05-07T14:33:56;15.10;1.00
13123;DHT22;6627;50.920;12.050;2023-05-07T14:36:27;15.30;1.00
13123;DHT22;6627;50.920;12.050;2023-05-07T14:39:00;15.50;1.00
13123;DHT22;6627;50.920;12.050;2023-05-07T14:41:35;15.20;99.90
13123;DHT22;6627;50.920;12.050;2023-05-07T14:44:07;15.40;99.90
13123;DHT22;6627;50.920;12.050;2023-05-07T14:46:45;15.60;99.90
13123;DHT22;6627;50.920;12.050;2023-05-07T14:49:22;15.60;99.90
13123;DHT22;6627;50.920;12.050;2023-05-07T14:52:06;15.60;99.90
13123;DHT22;6627;50.920;12.050;2023-05-07T14:54:42;15.40;99.90
13123;DHT22;6627;50.920;12.050;2023-05-07T14:57:22;15.60;99.90
13123;DHT22;6627;50.920;12.050;2023-05-07T15:00:10;15.70;99.90
13123;DHT22;6627;50.920;12.050;2023-05-07T15:02:43;15.50;6.20
13123;DHT22;6627;50.920;12.050;2023-05-07T15:05:18;15.50;1.00
13123;DHT22;6627;50.920;12.050;2023-05-07T15:07:52;15.60;1.00
13123;DHT22;6627;50.920;12.050;2023-05-07T15:10:36;15.50;1.00
13123;DHT22;6627;50.920;12.050;2023-05-07T15:13:25;15.70;1.00
13123;DHT22;6627;50.920;12.050;2023-05-07T15:16:09;15.40;1.00
13123;DHT22;6627;50.920;12.050;2023-05-07T15:18:38;15.00;1.00
13123;DHT22;6627;50.920;12.050;2023-05-07T15:21:09;14.90;1.00
13123;DHT22;6627;50.920;12.050;2023-05-07T15:23:47;14.90;1.00
13123;DHT22;6627;50.920;12.050;2023-05-07T15:26:21;15.00;1.00
13123;DHT22;6627;50.920;12.050;2023-05-07T15:28:51;14.90;1.00
13123;DHT22;6627;50.920;12.050;2023-05-07T15:31:24;15.00;1.00
13123;DHT22;6627;50.920;12.050;2023-05-07T15:34:06;14.90;1.00
13123;DHT22;6627;50.920;12.050;2023-05-07T15:36:53;14.90;1.00
13123;DHT22;6627;50.920;12.050;2023-05-07T15:39:33;14.90;1.00
13123;DHT22;6627;50.920;12.050;2023-05-07T15:42:07;14.90;1.00
13123;DHT22;6627;50.920;12.050;2023-05-07T15:44:43;14.80;1.00
13123;DHT22;6627;50.920;12.050;2023-05-07T15:47:18;14.70;1.00
13123;DHT22;6627;50.920;12.050;2023-05-07T15:49:55;14.80;1.00
13123;DHT22;6627;50.920;12.050;2023-05-07T15:52:29;14.90;1.00
13123;DHT22;6627;50.920;12.050;2023-05-07T15:55:15;15.20;1.00
13123;DHT22;6627;50.920;12.050;2023-05-07T15:57:56;15.20;1.00
13123;DHT22;6627;50.920;12.050;2023-05-07T16:00:28;15.20;1.00
13123;DHT22;6627;50.920;12.050;2023-05-07T16:03:06;15.10;1.00
13123;DHT22;6627;50.920;12.050;2023-05-07T16:05:39;14.90;1.00
13123;DHT22;6627;50.920;12.050;2023-05-07T16:08:09;14.60;1.00
13123;DHT22;6627;50.920;12.050;2023-05-07T16:10:44;14.70;1.00
13123;DHT22;6627;50.920;12.050;2023-05-07T16:13:18;14.50;1.00
13123;DHT22;6627;50.920;12.050;2023-05-07T16:16:05;14.60;1.00
13123;DHT22;6627;50.920;12.050;2023-05-07T16:18:51;14.50;1.00
13123;DHT22;6627;50.920;12.050;2023-05-07T16:21:28;14.70;1.00
13123;DHT22;6627;50.920;12.050;2023-05-07T16:24:12;14.70;1.00
13123;DHT22;6627;50.920;12.050;2023-05-07T16:26:48;14.70;1.00
13123;DHT22;6627;50.920;12.050;2023-05-07T16:29:16;14.90;1.00
13123;DHT22;6627;50.920;12.050;2023-05-07T16:31:45;14.90;1.00
13123;DHT22;6627;50.920;12.050;2023-05-07T16:34:18;14.80;1.00
13123;DHT22;6627;50.920;12.050;2023-05-07T16:36:45;14.80;1.00
13123;DHT22;6627;50.920;12.050;2023-05-07T16:39:12;14.70;1.00
13123;DHT22;6627;50.920;12.050;2023-05-07T16:41:39;14.60;1.00
13123;DHT22;6627;50.920;12.050;2023-05-07T16:44:09;14.60;1.00
13123;DHT22;6627;50.920;12.050;2023-05-07T16:46:37;14.50;1.00
13123;DHT22;6627;50.920;12.050;2023-05-07T16:49:04;14.60;1.00
13123;DHT22;6627;50.920;12.050;2023-05-07T16:54:01;14.60;1.00
13123;DHT22;6627;50.920;12.050;2023-05-07T16:56:28;14.50;1.00
13123;DHT22;6627;50.920;12.050;2023-05-07T16:58:56;14.30;1.00
13123;DHT22;6627;50.920;12.050;2023-05-07T17:01:23;14.40;1.00
13123;DHT22;6627;50.920;12.050;2023-05-07T17:03:50;14.40;1.00
13123;DHT22;6627;50.920;12.050;2023-05-07T17:06:19;14.40;1.00
13123;DHT22;6627;50.920;12.050;2023-05-07T17:08:48;14.20;1.00